createdAt,value
2023-05-10T00:01:04.796Z,100512.74
2023-05-10T00:03:32.786Z,100512.41
2023-05-10T00:06:00.762Z,100511.71
2023-05-10T00:08:28.374Z,100514.64
2023-05-10T00:10:56.229Z,100512.91
2023-05-10T00:13:24.017Z,100516.16
2023-05-10T00:15:51.812Z,100509.14
2023-05-10T00:18:20.224Z,100511.72
2023-05-10T00:20:49.698Z,100509.41
2023-05-10T00:23:17.454Z,100506.02
2023-05-10T00:25:45.179Z,100506.42
2023-05-10T00:28:12.846Z,100504.36
2023-05-10T00:30:40.603Z,100504.62
2023-05-10T00:33:08.234Z,100504.64
2023-05-10T00:35:35.962Z,100502.56
2023-05-10T00:38:03.584Z,100502.70
2023-05-10T00:40:31.551Z,100500.05
2023-05-10T00:43:02.444Z,100499.80
2023-05-10T00:45:33.676Z,100493.87
2023-05-10T00:48:03.606Z,100494.82
2023-05-10T00:50:33.565Z,100491.23
2023-05-10T00:53:02.868Z,100491.70
2023-05-10T00:55:31.987Z,100492.38
2023-05-10T00:57:59.853Z,100488.41
2023-05-10T01:00:27.595Z,100488.39
2023-05-10T01:02:55.462Z,100486.55
2023-05-10T01:05:23.874Z,100493.54
2023-05-10T01:07:51.893Z,100487.86
2023-05-10T01:10:20.322Z,100487.04
2023-05-10T01:12:48.573Z,100486.86
2023-05-10T01:15:18.256Z,100485.46
2023-05-10T01:17:48.673Z,100486.61
2023-05-10T01:20:17.009Z,100486.10
2023-05-10T01:22:47.849Z,100481.63
2023-05-10T01:25:31.394Z,100476.54
2023-05-10T01:28:02.127Z,100481.09
2023-05-10T01:30:59.573Z,100477.64
2023-05-10T01:33:41.872Z,100480.73
2023-05-10T01:36:20.534Z,100481.45
2023-05-10T01:38:52.718Z,100479.83
2023-05-10T01:41:26.838Z,100479.50
2023-05-10T01:43:55.900Z,100478.80
2023-05-10T01:46:42.789Z,100477.06
2023-05-10T01:49:19.879Z,100477.58
2023-05-10T01:51:54.737Z,100476.69
2023-05-10T01:54:24.714Z,100472.70
2023-05-10T01:56:59.588Z,100471.47
2023-05-10T01:59:31.820Z,100469.45
2023-05-10T02:02:00.862Z,100472.15
2023-05-10T02:04:29.653Z,100471.27
2023-05-10T02:06:58.521Z,100471.80
2023-05-10T02:09:28.454Z,100473.08
2023-05-10T02:11:57.721Z,100468.73
2023-05-10T02:14:28.076Z,100473.80
2023-05-10T02:16:57.946Z,100468.99
2023-05-10T02:19:27.427Z,100469.90
2023-05-10T02:21:56.810Z,100465.63
2023-05-10T02:24:26.139Z,100462.60
2023-05-10T02:26:58.803Z,100464.08
2023-05-10T02:29:28.259Z,100464.23
2023-05-10T02:31:57.781Z,100466.90
2023-05-10T02:34:28.511Z,100472.30
2023-05-10T02:36:57.757Z,100468.08
2023-05-10T02:39:29.506Z,100464.80
2023-05-10T02:41:59.344Z,100465.16
2023-05-10T02:44:29.758Z,100468.86
2023-05-10T02:46:58.909Z,100464.31
2023-05-10T02:49:26.711Z,100464.81
2023-05-10T02:52:03.435Z,100463.17
2023-05-10T02:54:38.598Z,100465.71
2023-05-10T02:57:07.152Z,100466.46
2023-05-10T02:59:35.146Z,100464.51
2023-05-10T03:02:03.219Z,100468.09
2023-05-10T03:04:31.142Z,100469.45
2023-05-10T03:07:00.119Z,100468.31
2023-05-10T03:09:28.387Z,100473.05
2023-05-10T03:12:11.958Z,100476.41
2023-05-10T03:14:55.752Z,100477.45
2023-05-10T03:17:30.548Z,100482.15
2023-05-10T03:20:10.714Z,100481.87
2023-05-10T03:22:50.772Z,100482.78
2023-05-10T03:25:22.372Z,100483.66
2023-05-10T03:27:51.135Z,100483.35
2023-05-10T03:30:20.421Z,100482.27
2023-05-10T03:32:48.287Z,100478.59
2023-05-10T03:35:17.724Z,100475.83
2023-05-10T03:37:45.664Z,100475.19
2023-05-10T03:40:14.497Z,100471.10
2023-05-10T03:42:43.457Z,100474.72
2023-05-10T03:45:11.480Z,100470.21
2023-05-10T03:47:39.427Z,100472.52
2023-05-10T03:50:08.089Z,100473.60
2023-05-10T03:52:35.927Z,100472.42
2023-05-10T03:55:04.556Z,100472.96
2023-05-10T03:57:32.219Z,100472.71
2023-05-10T03:59:59.893Z,100471.73
2023-05-10T04:02:28.198Z,100471.02
2023-05-10T04:04:56.209Z,100468.63
2023-05-10T04:07:23.860Z,100472.21
2023-05-10T04:09:51.496Z,100470.87
2023-05-10T04:12:19.201Z,100470.11
2023-05-10T04:14:46.795Z,100473.10
2023-05-10T04:17:14.493Z,100470.97
2023-05-10T04:19:42.263Z,100471.55
2023-05-10T04:22:09.894Z,100469.95
2023-05-10T04:24:37.534Z,100469.91
2023-05-10T04:27:05.236Z,100475.54
2023-05-10T04:29:32.841Z,100477.27
2023-05-10T04:32:00.428Z,100473.52
2023-05-10T04:34:28.268Z,100474.02
2023-05-10T04:36:56.125Z,100476.73
2023-05-10T04:39:23.788Z,100475.02
2023-05-10T04:41:51.409Z,100474.94
2023-05-10T04:44:19.017Z,100478.75
2023-05-10T04:46:47.133Z,100471.92
2023-05-10T04:49:15.423Z,100466.19
2023-05-10T04:51:43.063Z,100467.89
2023-05-10T04:54:11.205Z,100466.73
2023-05-10T04:56:38.797Z,100472.05
2023-05-10T04:59:06.401Z,100475.64
2023-05-10T05:01:34.223Z,100472.95
2023-05-10T05:04:02.406Z,100476.41
2023-05-10T05:06:30.218Z,100467.21
2023-05-10T05:08:57.835Z,100472.52
2023-05-10T05:11:26.492Z,100473.23
2023-05-10T05:13:54.459Z,100471.13
2023-05-10T05:16:22.408Z,100472.55
2023-05-10T05:18:51.367Z,100473.86
2023-05-10T05:21:21.015Z,100470.20
2023-05-10T05:23:48.712Z,100470.06
2023-05-10T05:26:16.972Z,100467.98
2023-05-10T05:28:47.314Z,100470.20
2023-05-10T05:31:15.898Z,100471.73
2023-05-10T05:33:43.652Z,100477.02
2023-05-10T05:36:11.330Z,100477.66
2023-05-10T05:38:38.947Z,100478.09
2023-05-10T05:41:06.795Z,100481.70
2023-05-10T05:43:38.468Z,100481.86
2023-05-10T05:46:06.629Z,100480.65
2023-05-10T05:48:34.283Z,100474.12
2023-05-10T05:51:02.525Z,100477.46
2023-05-10T05:53:30.157Z,100470.74
2023-05-10T05:55:59.717Z,100475.25
2023-05-10T05:58:28.619Z,100468.98
2023-05-10T06:01:11.730Z,100474.52
2023-05-10T06:03:39.595Z,100467.82
2023-05-10T06:06:08.575Z,100471.02
2023-05-10T06:08:36.912Z,100468.52
2023-05-10T06:11:05.135Z,100471.48
2023-05-10T06:13:34.257Z,100475.11
2023-05-10T06:16:04.159Z,100479.15
2023-05-10T06:18:32.433Z,100473.34
2023-05-10T06:21:00.699Z,100475.45
2023-05-10T06:23:28.403Z,100476.72
2023-05-10T06:25:56.040Z,100472.73
2023-05-10T06:28:23.708Z,100479.10
2023-05-10T06:30:51.673Z,100474.15
2023-05-10T06:33:19.617Z,100478.36
2023-05-10T06:35:52.509Z,100473.34
2023-05-10T06:38:20.893Z,100477.81
2023-05-10T06:40:48.907Z,100479.59
2023-05-10T06:43:17.247Z,100485.42
2023-05-10T06:45:46.512Z,100484.08
2023-05-10T06:48:14.533Z,100484.85
2023-05-10T06:50:43.426Z,100480.83
2023-05-10T06:53:12.741Z,100483.46
2023-05-10T06:55:40.710Z,100485.64
2023-05-10T06:58:08.326Z,100483.66
2023-05-10T07:00:36.109Z,100480.29
2023-05-10T07:03:05.626Z,100474.84
2023-05-10T07:05:34.936Z,100472.03
2023-05-10T07:08:02.896Z,100473.95
2023-05-10T07:10:30.802Z,100476.56
2023-05-10T07:12:58.560Z,100477.78
2023-05-10T07:15:26.280Z,100476.98
2023-05-10T07:17:55.007Z,100472.73
2023-05-10T07:20:22.927Z,100474.80
2023-05-10T07:22:50.891Z,100476.83
2023-05-10T07:25:19.035Z,100474.73
2023-05-10T07:27:49.238Z,100473.75
2023-05-10T07:30:16.923Z,100477.21
2023-05-10T07:32:44.618Z,100476.81
2023-05-10T07:35:12.385Z,100475.20
2023-05-10T07:37:40.450Z,100481.00
2023-05-10T07:40:09.643Z,100480.30
2023-05-10T07:42:40.587Z,100478.63
2023-05-10T07:45:09.542Z,100482.30
2023-05-10T07:47:37.343Z,100477.67
2023-05-10T07:50:09.868Z,100475.89
2023-05-10T07:52:40.358Z,100468.16
2023-05-10T07:55:11.266Z,100464.50
2023-05-10T07:57:40.110Z,100467.58
2023-05-10T08:00:11.050Z,100465.80
2023-05-10T08:02:45.784Z,100458.48
2023-05-10T08:05:18.485Z,100459.85
2023-05-10T08:07:47.904Z,100456.13
2023-05-10T08:10:18.647Z,100453.63
2023-05-10T08:12:49.232Z,100453.16
2023-05-10T08:15:17.583Z,100451.86
2023-05-10T08:17:47.558Z,100445.64
2023-05-10T08:20:21.041Z,100444.06
2023-05-10T08:22:52.029Z,100443.41
2023-05-10T08:25:21.448Z,100437.91
2023-05-10T08:27:49.264Z,100442.16
2023-05-10T08:30:21.782Z,100438.63
2023-05-10T08:32:51.397Z,100445.89
2023-05-10T08:35:25.527Z,100443.88
2023-05-10T08:37:56.756Z,100445.95
2023-05-10T08:40:29.690Z,100440.13
2023-05-10T08:43:08.248Z,100441.95
2023-05-10T08:45:43.985Z,100442.92
2023-05-10T08:48:12.796Z,100441.84
2023-05-10T08:50:43.558Z,100440.88
2023-05-10T08:53:14.004Z,100449.41
2023-05-10T08:55:43.244Z,100447.36
2023-05-10T08:58:15.402Z,100449.52
2023-05-10T09:00:44.905Z,100447.49
2023-05-10T09:03:15.250Z,100441.59
2023-05-10T09:05:46.609Z,100444.73
2023-05-10T09:08:19.399Z,100430.12
2023-05-10T09:10:53.824Z,100436.22
2023-05-10T09:13:23.904Z,100439.65
2023-05-10T09:15:52.900Z,100441.98
2023-05-10T09:18:20.748Z,100444.69
2023-05-10T09:20:49.559Z,100433.14
2023-05-10T09:23:17.173Z,100433.23
2023-05-10T09:25:44.776Z,100431.30
2023-05-10T09:28:12.907Z,100433.88
2023-05-10T09:30:41.269Z,100435.92
2023-05-10T09:33:08.898Z,100434.18
2023-05-10T09:35:39.739Z,100425.02
2023-05-10T09:38:07.512Z,100424.63
2023-05-10T09:40:36.200Z,100427.11
2023-05-10T09:43:08.599Z,100420.48
2023-05-10T09:45:38.685Z,100418.70
2023-05-10T09:48:07.523Z,100419.80
2023-05-10T09:50:35.624Z,100412.88
2023-05-10T09:53:04.759Z,100417.54
2023-05-10T09:55:50.171Z,100410.70
2023-05-10T09:58:17.911Z,100418.30
2023-05-10T10:00:48.468Z,100415.48
2023-05-10T10:03:17.882Z,100408.15
2023-05-10T10:05:47.065Z,100404.02
2023-05-10T10:08:19.276Z,100402.39
2023-05-10T10:10:47.639Z,100395.45
2023-05-10T10:13:16.343Z,100387.86
2023-05-10T10:15:45.411Z,100389.39
2023-05-10T10:18:16.897Z,100387.21
2023-05-10T10:20:44.954Z,100384.95
2023-05-10T10:23:12.948Z,100384.73
2023-05-10T10:25:41.659Z,100379.80
2023-05-10T10:28:33.469Z,100375.71
2023-05-10T10:31:14.756Z,100378.85
2023-05-10T10:33:58.676Z,100378.58
2023-05-10T10:36:32.781Z,100375.93
2023-05-10T10:39:02.342Z,100376.16
2023-05-10T10:41:31.613Z,100367.80
2023-05-10T10:44:31.731Z,100365.89
2023-05-10T10:47:27.771Z,100362.30
2023-05-10T10:50:01.444Z,100361.23
2023-05-10T10:52:39.200Z,100356.06
2023-05-10T11:06:10.213Z,100361.66
2023-05-10T11:09:41.238Z,100348.23
2023-05-10T11:12:21.476Z,100351.16
2023-05-10T11:14:52.389Z,100358.16
2023-05-10T11:17:25.125Z,100350.77
2023-05-10T11:20:14.971Z,100347.15
2023-05-10T11:22:59.155Z,100344.61
2023-05-10T11:25:29.426Z,100339.79
2023-05-10T11:27:57.745Z,100335.70
2023-05-10T11:30:25.934Z,100331.59
2023-05-10T11:32:53.887Z,100330.36
2023-05-10T11:35:21.591Z,100333.09
2023-05-10T11:37:49.453Z,100323.83
2023-05-10T11:40:17.289Z,100331.84
2023-05-10T11:42:46.194Z,100328.90
2023-05-10T11:45:13.850Z,100314.19
2023-05-10T11:47:44.174Z,100315.73
2023-05-10T11:50:12.257Z,100321.38
2023-05-10T11:52:39.994Z,100320.20
2023-05-10T11:55:08.179Z,100314.05
2023-05-10T11:57:47.738Z,100310.25
2023-05-10T12:00:16.413Z,100310.98
2023-05-10T12:02:44.946Z,100318.77
2023-05-10T12:05:15.988Z,100319.06
2023-05-10T12:07:43.871Z,100319.13
2023-05-10T12:10:18.410Z,100323.05
2023-05-10T12:12:50.824Z,100325.54
2023-05-10T12:15:28.506Z,100318.86
2023-05-10T12:17:57.759Z,100319.09
2023-05-10T12:20:28.730Z,100312.05
2023-05-10T12:23:00.720Z,100317.10
2023-05-10T12:25:37.084Z,100314.20
2023-05-10T12:28:07.464Z,100306.67
2023-05-10T12:30:36.693Z,100319.66
2023-05-10T12:33:15.719Z,100314.45
2023-05-10T12:35:52.185Z,100313.16
2023-05-10T12:38:38.955Z,100314.30
2023-05-10T12:41:09.036Z,100301.63
2023-05-10T12:43:37.712Z,100302.46
2023-05-10T12:46:09.873Z,100301.39
2023-05-10T12:48:39.316Z,100310.52
2023-05-10T12:51:12.712Z,100309.83
2023-05-10T12:53:44.569Z,100305.65
2023-05-10T12:56:13.396Z,100298.05
2023-05-10T12:58:41.435Z,100298.10
2023-05-10T13:01:09.827Z,100291.77
2023-05-10T13:03:37.516Z,100282.19
2023-05-10T13:06:05.922Z,100280.17
2023-05-10T13:08:34.775Z,100274.71
2023-05-10T13:11:03.978Z,100257.20
2023-05-10T13:13:31.687Z,100260.81
2023-05-10T13:15:59.322Z,100261.27
2023-05-10T13:18:27.246Z,100263.81
2023-05-10T13:20:55.782Z,100263.29
2023-05-10T13:23:29.398Z,100259.45
2023-05-10T13:25:57.192Z,100252.10
2023-05-10T13:28:26.463Z,100243.70
2023-05-10T13:30:54.120Z,100248.48
2023-05-10T13:33:21.941Z,100252.34
2023-05-10T13:35:49.631Z,100247.05
2023-05-10T13:38:17.277Z,100236.50
2023-05-10T13:40:44.884Z,100230.45
2023-05-10T13:43:12.598Z,100227.64
2023-05-10T13:45:40.217Z,100223.35
2023-05-10T13:48:07.984Z,100220.57
2023-05-10T13:50:35.820Z,100215.31
2023-05-10T13:53:03.573Z,100214.26
2023-05-10T13:56:19.239Z,100207.89
2023-05-10T13:59:04.071Z,100195.13
2023-05-10T14:01:32.119Z,100195.65
2023-05-10T14:04:01.369Z,100190.05
2023-05-10T14:06:29.496Z,100191.47
2023-05-10T14:08:57.825Z,100187.19
2023-05-10T14:11:25.823Z,100185.98
2023-05-10T14:13:54.217Z,100183.58
2023-05-10T14:16:22.864Z,100184.50
2023-05-10T14:18:50.749Z,100178.74
2023-05-10T14:21:18.559Z,100181.14
2023-05-10T14:23:46.220Z,100177.94
2023-05-10T14:26:13.833Z,100177.13
2023-05-10T14:28:41.538Z,100168.69
2023-05-10T14:31:09.357Z,100165.17
2023-05-10T14:33:36.965Z,100159.54
2023-05-10T14:36:04.902Z,100163.41
2023-05-10T14:38:32.529Z,100159.38
2023-05-10T14:41:00.332Z,100156.27
2023-05-10T14:43:28.975Z,100158.34
2023-05-10T14:45:56.861Z,100155.70
2023-05-10T14:48:24.688Z,100154.09
2023-05-10T14:50:53.484Z,100150.42
2023-05-10T14:53:38.427Z,100146.89
2023-05-10T14:56:06.499Z,100145.30
2023-05-10T14:58:34.578Z,100148.07
2023-05-10T15:01:03.783Z,100144.29
2023-05-10T15:03:32.403Z,100142.66
2023-05-10T15:06:00.835Z,100147.42
2023-05-10T15:08:29.057Z,100149.21
2023-05-10T15:10:57.186Z,100142.91
2023-05-10T15:13:25.344Z,100144.16
2023-05-10T15:15:53.230Z,100144.70
2023-05-10T15:18:21.129Z,100146.16
2023-05-10T15:20:48.812Z,100145.39
2023-05-10T15:23:16.520Z,100148.50
2023-05-10T15:25:44.154Z,100142.13
2023-05-10T15:28:11.749Z,100147.52
2023-05-10T15:30:39.572Z,100142.11
2023-05-10T15:33:08.586Z,100147.54
2023-05-10T15:35:39.217Z,100143.81
2023-05-10T15:38:07.039Z,100140.94
2023-05-10T15:40:34.690Z,100143.96
2023-05-10T15:43:02.412Z,100145.39
2023-05-10T15:45:30.318Z,100150.60
2023-05-10T15:47:59.826Z,100144.96
2023-05-10T15:50:28.014Z,100139.38
2023-05-10T15:52:55.728Z,100141.20
2023-05-10T15:55:23.346Z,100138.83
2023-05-10T15:57:51.308Z,100141.16
2023-05-10T16:00:19.132Z,100135.78
2023-05-10T16:02:46.801Z,100137.73
2023-05-10T16:05:14.705Z,100138.05
2023-05-10T16:07:42.825Z,100138.20
2023-05-10T16:10:11.425Z,100137.24
2023-05-10T16:12:39.538Z,100139.29
2023-05-10T16:15:08.785Z,100142.45
2023-05-10T16:17:37.431Z,100138.77
2023-05-10T16:20:06.838Z,100139.23
2023-05-10T16:22:36.252Z,100139.95
2023-05-10T16:25:04.607Z,100141.87
2023-05-10T16:27:33.436Z,100139.67
2023-05-10T16:30:01.048Z,100144.66
2023-05-10T16:32:28.696Z,100146.09
2023-05-10T16:34:56.389Z,100147.52
2023-05-10T16:37:24.085Z,100151.61
2023-05-10T16:39:52.146Z,100147.30
2023-05-10T16:42:19.792Z,100153.84
2023-05-10T16:44:47.701Z,100160.48
2023-05-10T16:47:15.328Z,100161.18
2023-05-10T16:49:42.966Z,100162.36
2023-05-10T16:52:10.985Z,100166.77
2023-05-10T16:54:38.617Z,100162.78
2023-05-10T16:57:06.705Z,100162.98
2023-05-10T16:59:34.516Z,100162.55
2023-05-10T17:02:02.213Z,100161.91
2023-05-10T17:04:29.908Z,100164.98
2023-05-10T17:06:57.638Z,100169.92
2023-05-10T17:09:25.255Z,100175.71
2023-05-10T17:11:52.849Z,100177.15
2023-05-10T17:14:20.574Z,100178.02
2023-05-10T17:16:48.369Z,100176.27
2023-05-10T17:19:16.712Z,100185.26
2023-05-10T17:21:44.524Z,100186.16
2023-05-10T17:24:12.211Z,100193.97
2023-05-10T17:26:39.884Z,100193.88
2023-05-10T17:29:07.895Z,100197.33
2023-05-10T17:31:35.566Z,100200.98
2023-05-10T17:34:05.413Z,100201.37
2023-05-10T17:36:34.333Z,100205.85
2023-05-10T17:39:01.995Z,100205.95
2023-05-10T17:41:29.644Z,100209.98
2023-05-10T17:43:57.268Z,100218.29
2023-05-10T17:46:24.934Z,100215.23
2023-05-10T17:48:52.951Z,100220.08
2023-05-10T17:51:20.583Z,100221.88
2023-05-10T17:53:48.197Z,100226.95
2023-05-10T17:56:16.223Z,100228.34
2023-05-10T17:58:44.081Z,100230.59
2023-05-10T18:01:12.096Z,100233.58
2023-05-10T18:03:39.974Z,100239.74
2023-05-10T18:06:07.673Z,100238.89
2023-05-10T18:08:35.472Z,100243.54
2023-05-10T18:11:03.268Z,100247.43
2023-05-10T18:13:31.034Z,100248.23
2023-05-10T18:15:59.322Z,100252.01
2023-05-10T18:18:27.308Z,100253.50
2023-05-10T18:20:57.617Z,100254.97
2023-05-10T18:23:26.273Z,100259.57
2023-05-10T18:25:54.127Z,100260.89
2023-05-10T18:28:21.908Z,100263.61
2023-05-10T18:30:49.667Z,100266.28
2023-05-10T18:33:17.564Z,100273.13
2023-05-10T18:35:45.312Z,100275.01
2023-05-10T18:38:13.605Z,100277.76
2023-05-10T18:40:41.997Z,100284.35
2023-05-10T18:43:09.675Z,100286.87
2023-05-10T18:45:38.953Z,100291.59
2023-05-10T18:48:07.807Z,100294.63
2023-05-10T18:50:35.588Z,100299.06
2023-05-10T18:53:03.367Z,100300.39
2023-05-10T18:55:31.216Z,100299.30
2023-05-10T18:57:58.880Z,100305.24
2023-05-10T19:00:26.635Z,100304.55
2023-05-10T19:02:54.323Z,100309.83
2023-05-10T19:05:27.094Z,100307.44
2023-05-10T19:07:54.684Z,100316.61
2023-05-10T19:10:22.465Z,100319.25
2023-05-10T19:12:50.597Z,100319.96
2023-05-10T19:15:20.160Z,100321.92
2023-05-10T19:17:49.409Z,100320.66
2023-05-10T19:20:17.463Z,100317.61
2023-05-10T19:23:02.231Z,100322.08
2023-05-10T19:25:35.896Z,100322.09
2023-05-10T19:28:03.745Z,100321.83
2023-05-10T19:30:31.711Z,100323.39
2023-05-10T19:32:59.436Z,100322.98
2023-05-10T19:35:27.118Z,100327.13
2023-05-10T19:37:54.749Z,100328.54
2023-05-10T19:40:22.471Z,100328.06
2023-05-10T19:42:50.420Z,100327.60
2023-05-10T19:45:18.288Z,100332.84
2023-05-10T19:47:46.415Z,100332.54
2023-05-10T19:50:18.292Z,100335.09
2023-05-10T19:52:46.221Z,100337.64
2023-05-10T19:55:16.129Z,100335.55
2023-05-10T19:57:45.291Z,100339.29
2023-05-10T20:00:13.668Z,100343.57
2023-05-10T20:02:41.250Z,100340.70
2023-05-10T20:05:09.511Z,100339.27
2023-05-10T20:07:37.327Z,100336.65
2023-05-10T20:10:05.539Z,100337.77
2023-05-10T20:12:33.168Z,100343.16
2023-05-10T20:15:00.767Z,100348.08
2023-05-10T20:17:28.459Z,100347.33
2023-05-10T20:19:56.133Z,100343.77
2023-05-10T20:22:23.781Z,100346.52
2023-05-10T20:24:53.241Z,100343.36
2023-05-10T20:27:22.810Z,100343.59
2023-05-10T20:29:50.485Z,100345.19
2023-05-10T20:32:18.093Z,100346.95
2023-05-10T20:34:45.733Z,100348.35
2023-05-10T20:37:13.362Z,100347.73
2023-05-10T20:39:41.080Z,100349.13
2023-05-10T20:42:08.941Z,100350.20
2023-05-10T20:44:36.558Z,100345.58
2023-05-10T20:47:04.574Z,100351.92
2023-05-10T20:49:32.492Z,100354.68
2023-05-10T20:52:00.308Z,100356.03
2023-05-10T20:54:28.396Z,100360.67
2023-05-10T20:56:56.090Z,100360.38
2023-05-10T20:59:23.764Z,100364.29
2023-05-10T21:01:51.412Z,100360.77
2023-05-10T21:04:19.243Z,100365.67
2023-05-10T21:06:46.832Z,100368.36
2023-05-10T21:09:14.679Z,100370.41
2023-05-10T21:11:42.386Z,100374.65
2023-05-10T21:14:10.542Z,100376.00
2023-05-10T21:16:38.219Z,100376.31
2023-05-10T21:19:07.638Z,100377.65
2023-05-10T21:21:35.554Z,100381.13
2023-05-10T21:24:03.751Z,100380.41
2023-05-10T21:26:31.434Z,100378.27
2023-05-10T21:28:59.279Z,100378.47
2023-05-10T21:31:26.911Z,100381.87
2023-05-10T21:33:54.493Z,100378.72
2023-05-10T21:36:22.189Z,100378.37
2023-05-10T21:38:50.546Z,100379.00
2023-05-10T21:41:18.607Z,100377.22
2023-05-10T21:43:46.243Z,100382.00
2023-05-10T21:46:14.294Z,100387.39
2023-05-10T21:48:42.084Z,100384.69
2023-05-10T21:51:09.712Z,100388.80
2023-05-10T21:53:38.909Z,100393.17
2023-05-10T21:56:07.356Z,100394.41
2023-05-10T21:58:35.213Z,100396.11
2023-05-10T22:01:03.234Z,100400.23
2023-05-10T22:03:31.149Z,100399.61
2023-05-10T22:05:58.863Z,100399.30
2023-05-10T22:08:26.609Z,100403.42
2023-05-10T22:10:54.529Z,100403.64
2023-05-10T22:13:22.165Z,100403.33
2023-05-10T22:15:50.081Z,100404.66
2023-05-10T22:18:17.740Z,100404.86
2023-05-10T22:20:46.438Z,100409.84
2023-05-10T22:23:14.066Z,100414.31
2023-05-10T22:25:41.858Z,100412.44
2023-05-10T22:28:10.384Z,100414.63
2023-05-10T22:30:38.057Z,100413.38
2023-05-10T22:33:06.422Z,100416.79
2023-05-10T22:35:34.236Z,100419.46
2023-05-10T22:38:02.029Z,100423.42
2023-05-10T22:40:29.656Z,100423.40
2023-05-10T22:42:57.248Z,100431.98
2023-05-10T22:45:25.630Z,100430.63
2023-05-10T22:47:53.643Z,100431.67
2023-05-10T22:50:21.501Z,100434.70
2023-05-10T22:52:49.153Z,100433.85
2023-05-10T22:55:17.270Z,100432.02
2023-05-10T22:57:44.942Z,100434.02
2023-05-10T23:00:13.469Z,100434.20
2023-05-10T23:02:41.702Z,100433.55
2023-05-10T23:05:09.839Z,100435.88
2023-05-10T23:07:38.050Z,100434.61
2023-05-10T23:10:06.338Z,100437.90
2023-05-10T23:12:34.653Z,100438.90
2023-05-10T23:15:02.361Z,100438.00
2023-05-10T23:17:30.032Z,100439.61
2023-05-10T23:19:57.903Z,100435.85
2023-05-10T23:22:25.550Z,100436.02
2023-05-10T23:24:53.190Z,100440.20
2023-05-10T23:27:20.875Z,100440.45
2023-05-10T23:29:52.165Z,100444.23
2023-05-10T23:32:19.777Z,100440.86
2023-05-10T23:34:47.403Z,100442.27
2023-05-10T23:37:15.734Z,100446.29
2023-05-10T23:39:43.324Z,100446.64
2023-05-10T23:42:10.954Z,100442.80
2023-05-10T23:44:38.658Z,100446.25
2023-05-10T23:47:07.156Z,100447.55
2023-05-10T23:49:34.986Z,100447.52
2023-05-10T23:52:02.616Z,100448.55
2023-05-10T23:54:30.546Z,100450.11
2023-05-10T23:56:58.197Z,100449.49
2023-05-10T23:59:25.785Z,100449.32
